Time;durP1;ratioP1;P1;durP2;ratioP2;P2;SDS_P1;SDS_P2;PMS_P1;PMS_P2;Temp;Humidity;BMP_temperature;BMP_pressure;BME280_temperature;BME280_humidity;BME280_pressure;Samples;Min_cycle;Max_cycle;Signal;HPM_P1;HPM_P2
2021/04/19 00:00:37;;;;;;;30.30;16.75;;;;;;;;;;1481240;40;20768;-80
2021/04/19 00:01:38;;;;;;;28.73;16.77;;;;;;;;;;1479591;40;20414;-81
2021/04/19 00:02:39;;;;;;;29.45;17.55;;;;;;;;;;1481238;40;20469;-81
2021/04/19 00:03:41;;;;;;;30.88;17.77;;;;;;;;;;1483643;40;20405;-79
2021/04/19 00:04:42;;;;;;;27.98;16.92;;;;;;;;;;1476098;40;20393;-79
2021/04/19 00:05:43;;;;;;;27.88;15.85;;;;;;;;;;1474321;40;20499;-79
2021/04/19 00:06:45;;;;;;;34.30;16.90;;;;;;;;;;1477806;40;20410;-79
2021/04/19 00:07:46;;;;;;;25.42;16.17;;;;;;;;;;1478599;40;20398;-79
2021/04/19 00:08:47;;;;;;;26.73;17.10;;;;;;;;;;1474311;40;20504;-78
2021/04/19 00:09:48;;;;;;;29.85;17.83;;;;;;;;;;1469946;40;20413;-79
2021/04/19 00:10:49;;;;;;;27.27;16.15;;;;;;;;;;1477633;40;20410;-79
2021/04/19 00:11:50;;;;;;;32.20;17.08;;;;;;;;;;1482288;40;20539;-79
2021/04/19 00:12:51;;;;;;;29.58;17.10;;;;;;;;;;1481074;40;20400;-79
2021/04/19 00:13:52;;;;;;;30.20;16.30;;;;;;;;;;1478232;40;20406;-80
2021/04/19 00:14:53;;;;;;;32.20;17.77;;;;;;;;;;1478349;40;20770;-79
2021/04/19 00:15:54;;;;;;;29.05;17.00;;;;;;;;;;1478841;40;20763;-79
2021/04/19 00:16:55;;;;;;;26.50;16.60;;;;;;;;;;1477749;40;20402;-79
2021/04/19 00:17:57;;;;;;;31.00;16.70;;;;;;;;;;1470191;40;20442;-80
2021/04/19 00:18:58;;;;;;;31.67;16.63;;;;;;;;;;1474166;40;20400;-80
2021/04/19 00:19:59;;;;;;;28.48;17.02;;;;;;;;;;1478281;40;20414;-80
2021/04/19 00:21:00;;;;;;;26.58;15.82;;;;;;;;;;1478464;40;20406;-80
2021/04/19 00:22:02;;;;;;;29.80;16.40;;;;;;;;;;1478603;40;20433;-79
2021/04/19 00:23:03;;;;;;;27.42;15.70;;;;;;;;;;1479027;40;20400;-79
2021/04/19 00:24:04;;;;;;;30.87;16.67;;;;;;;;;;1478540;40;20406;-80
2021/04/19 00:25:06;;;;;;;27.08;15.85;;;;;;;;;;1478873;40;20414;-79
2021/04/19 00:26:07;;;;;;;29.38;17.30;;;;;;;;;;1477133;40;20783;-80
2021/04/19 00:27:08;;;;;;;27.42;16.25;;;;;;;;;;1479834;40;20425;-79
2021/04/19 00:28:09;;;;;;;28.00;16.15;;;;;;;;;;1477258;40;20811;-82
2021/04/19 00:29:10;;;;;;;24.65;16.55;;;;;;;;;;1473175;40;20407;-80
2021/04/19 00:30:12;;;;;;;31.67;16.52;;;;;;;;;;1473938;40;20408;-79
2021/04/19 00:31:13;;;;;;;25.63;16.10;;;;;;;;;;1474399;40;20456;-79
2021/04/19 00:32:14;;;;;;;27.48;17.17;;;;;;;;;;1478261;40;20409;-80
2021/04/19 00:33:15;;;;;;;30.98;16.60;;;;;;;;;;1478598;40;20448;-80
2021/04/19 00:34:16;;;;;;;28.13;15.95;;;;;;;;;;1478493;40;20383;-80
2021/04/19 00:35:17;;;;;;;31.27;17.25;;;;;;;;;;1477057;40;21058;-80
2021/04/19 00:36:18;;;;;;;26.60;16.02;;;;;;;;;;1477372;40;20452;-80
2021/04/19 00:37:19;;;;;;;28.48;16.50;;;;;;;;;;1479351;40;20425;-79
2021/04/19 00:38:20;;;;;;;24.73;15.90;;;;;;;;;;1479835;40;20468;-80
2021/04/19 00:39:21;;;;;;;26.77;16.60;;;;;;;;;;1483881;40;20413;-79
2021/04/19 00:40:22;;;;;;;26.23;15.60;;;;;;;;;;1479205;40;20714;-80
2021/04/19 00:41:23;;;;;;;28.23;16.80;;;;;;;;;;1479716;40;20511;-81
2021/04/19 00:42:24;;;;;;;30.48;16.25;;;;;;;;;;1480588;40;20398;-80
2021/04/19 00:43:26;;;;;;;25.90;16.00;;;;;;;;;;1481168;40;20406;-79
2021/04/19 00:44:27;;;;;;;30.27;17.67;;;;;;;;;;1478351;40;20426;-79
2021/04/19 00:45:28;;;;;;;30.27;16.05;;;;;;;;;;1484633;40;20404;-78
2021/04/19 00:46:28;;;;;;;32.28;16.80;;;;;;;;;;1482978;40;20455;-79
2021/04/19 00:47:30;;;;;;;26.25;16.30;;;;;;;;;;1482593;40;20529;-80
2021/04/19 00:48:31;;;;;;;29.23;16.48;;;;;;;;;;1482250;40;20409;-79
2021/04/19 00:49:32;;;;;;;26.80;16.90;;;;;;;;;;1482706;40;20444;-79
2021/04/19 00:50:34;;;;;;;31.10;17.50;;;;;;;;;;1481018;40;20432;-79
2021/04/19 00:51:35;;;;;;;32.15;16.00;;;;;;;;;;1482260;40;20427;-79
2021/04/19 00:52:36;;;;;;;28.95;16.92;;;;;;;;;;1478296;40;20402;-80
2021/04/19 00:53:37;;;;;;;30.88;17.58;;;;;;;;;;1470157;40;20409;-79
2021/04/19 00:54:38;;;;;;;31.00;17.15;;;;;;;;;;1479017;40;20908;-79
2021/04/19 00:55:40;;;;;;;31.27;17.25;;;;;;;;;;1473791;40;21108;-80
2021/04/19 00:56:41;;;;;;;28.67;17.23;;;;;;;;;;1477974;40;20432;-79
2021/04/19 00:57:43;;;;;;;29.75;17.38;;;;;;;;;;1482664;40;20740;-80
2021/04/19 00:58:46;;;;;;;34.60;18.70;;;;;;;;;;1485869;40;20793;-78
2021/04/19 00:59:47;;;;;;;33.53;18.42;;;;;;;;;;1481609;40;20414;-81
2021/04/19 01:00:48;;;;;;;32.70;19.77;;;;;;;;;;1481214;40;20418;-80
2021/04/19 01:01:50;;;;;;;33.45;19.75;;;;;;;;;;1482114;40;20411;-79
2021/04/19 01:02:52;;;;;;;31.30;19.42;;;;;;;;;;1482632;40;20388;-79
2021/04/19 01:03:53;;;;;;;32.63;19.63;;;;;;;;;;1483616;40;20642;-79
2021/04/19 01:04:54;;;;;;;37.85;19.83;;;;;;;;;;1483051;40;20423;-78
2021/04/19 01:05:55;;;;;;;31.65;19.52;;;;;;;;;;1480544;40;20408;-79
2021/04/19 01:06:58;;;;;;;34.13;19.13;;;;;;;;;;1478503;40;20414;-79
2021/04/19 01:07:59;;;;;;;34.67;19.48;;;;;;;;;;1478101;40;20663;-79
2021/04/19 01:09:01;;;;;;;40.90;20.55;;;;;;;;;;1478095;40;20379;-79
2021/04/19 01:10:02;;;;;;;31.73;20.23;;;;;;;;;;1473804;40;20427;-79
2021/04/19 01:11:04;;;;;;;36.10;20.25;;;;;;;;;;1473288;40;20631;-79
2021/04/19 01:12:05;;;;;;;36.15;19.75;;;;;;;;;;1478987;40;20759;-79
2021/04/19 01:13:07;;;;;;;37.50;21.48;;;;;;;;;;1478382;40;20834;-79
2021/04/19 01:14:08;;;;;;;35.67;21.08;;;;;;;;;;1482199;40;20740;-79
2021/04/19 01:15:09;;;;;;;40.33;22.38;;;;;;;;;;1481394;40;20392;-79
2021/04/19 01:16:10;;;;;;;37.38;21.73;;;;;;;;;;1482648;40;20498;-80
2021/04/19 01:17:11;;;;;;;41.28;22.85;;;;;;;;;;1482844;40;20923;-79
2021/04/19 01:18:13;;;;;;;40.45;22.08;;;;;;;;;;1479173;40;20398;-79
2021/04/19 01:19:14;;;;;;;41.28;22.35;;;;;;;;;;1478497;40;20410;-79
2021/04/19 01:20:16;;;;;;;43.47;23.92;;;;;;;;;;1474286;40;20452;-79
2021/04/19 01:21:17;;;;;;;40.00;22.10;;;;;;;;;;1476891;40;20830;-79
2021/04/19 01:22:18;;;;;;;46.80;23.92;;;;;;;;;;1474516;40;20455;-79
2021/04/19 01:23:20;;;;;;;42.67;23.65;;;;;;;;;;1474117;40;20415;-79
2021/04/19 01:24:21;;;;;;;45.72;23.35;;;;;;;;;;1479177;40;20409;-79
2021/04/19 01:25:23;;;;;;;43.78;24.83;;;;;;;;;;1478452;40;20953;-80
2021/04/19 01:26:24;;;;;;;39.88;23.92;;;;;;;;;;1482977;40;20522;-79
2021/04/19 01:27:25;;;;;;;42.15;23.90;;;;;;;;;;1481978;40;20515;-79
2021/04/19 01:28:26;;;;;;;37.83;23.02;;;;;;;;;;1478782;40;20413;-79
2021/04/19 01:29:27;;;;;;;46.13;22.08;;;;;;;;;;1478398;40;20776;-79
2021/04/19 01:30:33;;;;;;;43.55;21.90;;;;;;;;;;1478417;40;20414;-80
2021/04/19 01:31:34;;;;;;;40.00;22.13;;;;;;;;;;1478873;40;20414;-79
2021/04/19 01:32:35;;;;;;;39.40;22.80;;;;;;;;;;1482404;40;20681;-80
2021/04/19 01:33:37;;;;;;;36.97;22.60;;;;;;;;;;1477074;40;20398;-79
2021/04/19 01:34:38;;;;;;;38.83;22.92;;;;;;;;;;1478511;40;20815;-79
2021/04/19 01:35:40;;;;;;;34.58;22.88;;;;;;;;;;1478303;40;20737;-79
2021/04/19 01:36:41;;;;;;;38.97;23.45;;;;;;;;;;1478245;40;20417;-80
2021/04/19 01:37:43;;;;;;;42.42;24.08;;;;;;;;;;1479093;40;20418;-79
2021/04/19 01:38:44;;;;;;;40.22;21.77;;;;;;;;;;1477811;40;20410;-79
2021/04/19 01:39:45;;;;;;;37.63;22.38;;;;;;;;;;1478429;40;20398;-79
2021/04/19 01:40:49;;;;;;;40.65;22.75;;;;;;;;;;1479034;40;20409;-79
2021/04/19 01:41:50;;;;;;;38.88;23.42;;;;;;;;;;1478859;40;20418;-78
2021/04/19 01:42:51;;;;;;;38.65;22.75;;;;;;;;;;1478640;40;20401;-79
2021/04/19 01:43:51;;;;;;;38.15;21.90;;;;;;;;;;1474303;40;20525;-79
2021/04/19 01:44:52;;;;;;;39.30;21.75;;;;;;;;;;1478202;40;20421;-79
2021/04/19 01:45:53;;;;;;;38.45;22.80;;;;;;;;;;1478599;40;20407;-80
2021/04/19 01:46:54;;;;;;;34.57;22.03;;;;;;;;;;1477847;40;20520;-80
2021/04/19 01:47:56;;;;;;;34.78;22.05;;;;;;;;;;1478860;40;20398;-80
2021/04/19 01:48:58;;;;;;;40.85;22.10;;;;;;;;;;1478978;40;20397;-80
2021/04/19 01:50:05;;;;;;;34.65;22.45;;;;;;;;;;1478444;40;20406;-79
2021/04/19 01:51:06;;;;;;;39.95;22.95;;;;;;;;;;1480399;40;20424;-80
2021/04/19 01:52:07;;;;;;;40.10;22.95;;;;;;;;;;1480532;40;20488;-80
2021/04/19 01:53:08;;;;;;;36.35;21.92;;;;;;;;;;1474802;40;20416;-79
2021/04/19 01:54:09;;;;;;;34.67;21.92;;;;;;;;;;1470621;40;20508;-79
2021/04/19 01:55:12;;;;;;;45.88;22.63;;;;;;;;;;1478654;40;21110;-79
2021/04/19 01:56:13;;;;;;;41.75;23.25;;;;;;;;;;1482402;40;20404;-79
2021/04/19 01:57:14;;;;;;;43.45;23.85;;;;;;;;;;1477755;40;20454;-81
2021/04/19 01:58:17;;;;;;;40.78;22.67;;;;;;;;;;1482153;40;20400;-80
2021/04/19 01:59:18;;;;;;;40.80;22.67;;;;;;;;;;1482572;40;20408;-79
2021/04/19 02:00:21;;;;;;;35.58;22.27;;;;;;;;;;1481329;40;20409;-79
2021/04/19 02:01:22;;;;;;;41.63;23.97;;;;;;;;;;1481630;40;20405;-80
2021/04/19 02:02:27;;;;;;;39.20;22.67;;;;;;;;;;1478352;40;20418;-80
2021/04/19 02:03:44;;;;;;;34.97;21.67;;;;;;;;;;1481757;40;21078;-79
2021/04/19 02:04:54;;;;;;;39.63;23.77;;;;;;;;;;1482715;40;20848;-79
2021/04/19 02:06:04;;;;;;;35.63;23.67;;;;;;;;;;1479008;40;20852;-79
2021/04/19 02:07:08;;;;;;;36.72;24.45;;;;;;;;;;1477452;40;20413;-79
2021/04/19 02:08:22;;;;;;;46.05;24.63;;;;;;;;;;1482920;40;20393;-79
2021/04/19 02:09:25;;;;;;;44.75;25.20;;;;;;;;;;1482656;40;20779;-80
2021/04/19 02:10:32;;;;;;;40.78;23.58;;;;;;;;;;1478621;40;20418;-79
2021/04/19 02:11:42;;;;;;;40.05;24.42;;;;;;;;;;1482573;40;20429;-79
2021/04/19 02:12:45;;;;;;;41.13;24.80;;;;;;;;;;1483268;40;20424;-80
2021/04/19 02:14:04;;;;;;;41.50;26.10;;;;;;;;;;1483359;40;20396;-79
2021/04/19 02:15:08;;;;;;;43.88;25.90;;;;;;;;;;1482299;40;21123;-79
2021/04/19 02:16:09;;;;;;;43.30;26.80;;;;;;;;;;1487406;40;20440;-79
2021/04/19 02:17:19;;;;;;;46.53;26.60;;;;;;;;;;1487511;40;20419;-78
2021/04/19 02:18:28;;;;;;;43.83;26.73;;;;;;;;;;1484361;40;20440;-80
2021/04/19 02:19:53;;;;;;;45.10;26.55;;;;;;;;;;1482412;40;20657;-79
2021/04/19 02:20:55;;;;;;;43.85;27.15;;;;;;;;;;1483164;39;20395;-79
2021/04/19 02:22:06;;;;;;;47.33;28.23;;;;;;;;;;1482307;40;20462;-79
2021/04/19 02:23:14;;;;;;;51.05;29.40;;;;;;;;;;1478435;40;20419;-79
2021/04/19 02:24:20;;;;;;;50.25;29.42;;;;;;;;;;1479078;40;20386;-79
2021/04/19 02:25:34;;;;;;;47.17;28.60;;;;;;;;;;1483075;40;20397;-79
2021/04/19 02:26:37;;;;;;;51.35;29.85;;;;;;;;;;1486238;40;20421;-79
2021/04/19 02:27:39;;;;;;;44.65;27.58;;;;;;;;;;1486369;40;20400;-78
2021/04/19 02:28:44;;;;;;;47.75;30.95;;;;;;;;;;1481451;40;20483;-80
2021/04/19 02:29:47;;;;;;;51.90;31.67;;;;;;;;;;1481258;40;20451;-79
2021/04/19 02:30:50;;;;;;;50.42;31.05;;;;;;;;;;1487057;40;20426;-78
2021/04/19 02:31:56;;;;;;;51.67;30.25;;;;;;;;;;1487107;40;20403;-79
2021/04/19 02:32:58;;;;;;;52.70;30.23;;;;;;;;;;1482488;40;20382;-79
2021/04/19 02:34:00;;;;;;;48.00;30.08;;;;;;;;;;1481274;40;20421;-80
2021/04/19 02:35:07;;;;;;;52.78;30.42;;;;;;;;;;1482693;40;20427;-80
2021/04/19 02:36:09;;;;;;;57.58;32.25;;;;;;;;;;1483220;40;20408;-79
2021/04/19 02:37:10;;;;;;;54.17;32.47;;;;;;;;;;1487251;40;20601;-79
2021/04/19 02:38:13;;;;;;;57.67;31.83;;;;;;;;;;1482523;40;20586;-80
2021/04/19 02:39:17;;;;;;;53.67;32.00;;;;;;;;;;1482766;40;20506;-79
2021/04/19 02:40:19;;;;;;;59.28;32.30;;;;;;;;;;1484896;40;20406;-79
2021/04/19 02:41:21;;;;;;;50.67;31.48;;;;;;;;;;1482877;40;20416;-79
2021/04/19 02:42:23;;;;;;;50.88;31.35;;;;;;;;;;1483262;40;20431;-79
2021/04/19 02:43:24;;;;;;;50.38;31.30;;;;;;;;;;1482587;40;20422;-80
2021/04/19 02:44:26;;;;;;;56.88;32.00;;;;;;;;;;1482263;40;20408;-78
2021/04/19 02:45:28;;;;;;;56.47;33.50;;;;;;;;;;1478613;40;20417;-79
2021/04/19 02:46:29;;;;;;;52.10;31.20;;;;;;;;;;1474478;40;20415;-80
2021/04/19 02:47:31;;;;;;;62.38;32.95;;;;;;;;;;1479265;40;20477;-79
2021/04/19 02:48:32;;;;;;;50.85;31.40;;;;;;;;;;1483092;40;20412;-79
2021/04/19 02:49:35;;;;;;;56.85;32.45;;;;;;;;;;1488037;40;20407;-79
2021/04/19 02:50:36;;;;;;;52.05;31.42;;;;;;;;;;1488016;40;20463;-80
2021/04/19 02:51:42;;;;;;;50.75;32.33;;;;;;;;;;1486591;40;20418;-80
2021/04/19 02:52:44;;;;;;;55.95;32.08;;;;;;;;;;1486644;40;20405;-79
2021/04/19 02:53:45;;;;;;;56.65;32.10;;;;;;;;;;1486115;40;20420;-79
2021/04/19 02:54:47;;;;;;;51.50;31.97;;;;;;;;;;1486534;40;20596;-79
2021/04/19 02:55:49;;;;;;;57.57;32.90;;;;;;;;;;1485113;40;20521;-79
2021/04/19 02:56:50;;;;;;;60.30;34.33;;;;;;;;;;1484722;40;20671;-79
2021/04/19 02:57:54;;;;;;;56.30;32.58;;;;;;;;;;1483936;40;20690;-79
2021/04/19 02:58:57;;;;;;;54.42;31.30;;;;;;;;;;1484803;40;20803;-79
2021/04/19 02:59:59;;;;;;;62.72;32.72;;;;;;;;;;1487434;40;20407;-79
2021/04/19 03:01:00;;;;;;;60.13;32.80;;;;;;;;;;1483071;40;20408;-79
2021/04/19 03:02:07;;;;;;;52.83;30.73;;;;;;;;;;1482063;40;20416;-79
2021/04/19 03:03:10;;;;;;;54.63;32.03;;;;;;;;;;1483188;40;20392;-79
2021/04/19 03:04:13;;;;;;;62.83;33.03;;;;;;;;;;1483491;40;20422;-79
2021/04/19 03:05:15;;;;;;;60.63;33.35;;;;;;;;;;1482757;40;20433;-80
2021/04/19 03:06:16;;;;;;;58.30;32.28;;;;;;;;;;1480695;40;20397;-79
2021/04/19 03:07:18;;;;;;;59.95;33.75;;;;;;;;;;1485526;40;20399;-79
2021/04/19 03:08:21;;;;;;;55.88;31.83;;;;;;;;;;1487270;40;20418;-79
2021/04/19 03:09:24;;;;;;;56.95;33.50;;;;;;;;;;1482525;40;20440;-79
2021/04/19 03:10:27;;;;;;;55.00;33.17;;;;;;;;;;1478594;40;20398;-79
2021/04/19 03:11:31;;;;;;;54.13;32.40;;;;;;;;;;1478198;40;20415;-79
2021/04/19 03:12:33;;;;;;;60.33;33.60;;;;;;;;;;1479133;40;20419;-78
2021/04/19 03:13:36;;;;;;;60.47;33.58;;;;;;;;;;1484811;40;20393;-79
2021/04/19 03:14:43;;;;;;;58.92;32.65;;;;;;;;;;1489892;40;20418;-80
2021/04/19 03:15:46;;;;;;;59.55;35.42;;;;;;;;;;1485254;40;20424;-79
2021/04/19 03:16:49;;;;;;;59.30;33.90;;;;;;;;;;1483592;40;20534;-79
2021/04/19 03:17:52;;;;;;;57.45;32.75;;;;;;;;;;1478999;40;20419;-81
2021/04/19 03:18:54;;;;;;;56.75;33.47;;;;;;;;;;1474218;40;20431;-79
2021/04/19 03:20:18;;;;;;;62.58;33.63;;;;;;;;;;1478014;40;20431;-80
2021/04/19 03:21:21;;;;;;;55.00;33.63;;;;;;;;;;1480769;40;20401;-78
2021/04/19 03:22:23;;;;;;;57.92;33.78;;;;;;;;;;1485548;40;20427;-79
2021/04/19 03:23:24;;;;;;;55.97;34.65;;;;;;;;;;1480074;40;20399;-79
2021/04/19 03:24:26;;;;;;;53.85;32.20;;;;;;;;;;1484107;40;20388;-78
2021/04/19 03:25:27;;;;;;;58.83;33.92;;;;;;;;;;1485915;40;20387;-79
2021/04/19 03:26:30;;;;;;;57.63;33.95;;;;;;;;;;1484734;40;20409;-79
2021/04/19 03:27:32;;;;;;;54.20;33.22;;;;;;;;;;1484430;40;20906;-78
2021/04/19 03:28:33;;;;;;;57.22;32.13;;;;;;;;;;1488100;40;20512;-78
2021/04/19 03:29:36;;;;;;;64.35;36.35;;;;;;;;;;1479338;40;20746;-79
2021/04/19 03:30:37;;;;;;;67.25;34.95;;;;;;;;;;1479268;40;20409;-79
2021/04/19 03:31:41;;;;;;;61.03;33.55;;;;;;;;;;1488019;40;20415;-79
2021/04/19 03:32:46;;;;;;;58.00;35.55;;;;;;;;;;1487001;39;20460;-79
2021/04/19 03:33:49;;;;;;;57.28;33.00;;;;;;;;;;1482690;40;20404;-79
2021/04/19 03:34:50;;;;;;;60.90;35.92;;;;;;;;;;1482774;40;20808;-79
2021/04/19 03:35:52;;;;;;;63.38;34.97;;;;;;;;;;1486386;40;20406;-79
2021/04/19 03:36:59;;;;;;;63.60;36.67;;;;;;;;;;1482360;40;20771;-80
2021/04/19 03:38:01;;;;;;;69.00;35.15;;;;;;;;;;1483177;40;20650;-79
2021/04/19 03:39:02;;;;;;;62.58;35.92;;;;;;;;;;1487253;40;20444;-79
2021/04/19 03:40:09;;;;;;;61.40;34.15;;;;;;;;;;1487015;40;20657;-79
2021/04/19 03:41:11;;;;;;;64.45;36.13;;;;;;;;;;1486390;40;20451;-79
2021/04/19 03:42:14;;;;;;;62.08;37.42;;;;;;;;;;1487732;40;20447;-79
2021/04/19 03:43:16;;;;;;;65.03;35.72;;;;;;;;;;1481382;40;20404;-80
2021/04/19 03:44:18;;;;;;;62.30;37.03;;;;;;;;;;1480543;40;20673;-79
2021/04/19 03:45:24;;;;;;;66.55;36.33;;;;;;;;;;1482874;40;20416;-79
2021/04/19 03:46:27;;;;;;;62.15;35.97;;;;;;;;;;1478109;40;20416;-79
2021/04/19 03:47:29;;;;;;;63.17;35.78;;;;;;;;;;1478407;40;20757;-79
2021/04/19 03:48:32;;;;;;;61.47;35.30;;;;;;;;;;1482893;40;20421;-79
2021/04/19 03:49:35;;;;;;;61.28;35.83;;;;;;;;;;1483948;40;20416;-79
2021/04/19 03:50:38;;;;;;;65.53;36.30;;;;;;;;;;1486819;40;20403;-79
2021/04/19 03:51:41;;;;;;;63.27;36.07;;;;;;;;;;1482714;40;20515;-79
2021/04/19 03:52:45;;;;;;;60.92;35.25;;;;;;;;;;1482488;40;20478;-79
2021/04/19 03:53:49;;;;;;;67.63;36.53;;;;;;;;;;1480998;40;20512;-80
2021/04/19 03:54:51;;;;;;;57.08;34.10;;;;;;;;;;1478336;40;20938;-80
2021/04/19 03:55:53;;;;;;;63.25;34.67;;;;;;;;;;1481304;40;20701;-79
2021/04/19 03:56:55;;;;;;;65.40;35.72;;;;;;;;;;1482552;40;20404;-79
2021/04/19 03:57:57;;;;;;;61.28;34.95;;;;;;;;;;1487105;40;20649;-80
2021/04/19 03:58:59;;;;;;;61.42;34.17;;;;;;;;;;1482260;40;20413;-79
2021/04/19 04:00:04;;;;;;;62.33;34.45;;;;;;;;;;1482317;40;20659;-79
2021/04/19 04:01:07;;;;;;;63.58;34.25;;;;;;;;;;1482721;40;20425;-79
2021/04/19 04:02:09;;;;;;;62.65;34.05;;;;;;;;;;1482839;40;20912;-79
2021/04/19 04:03:11;;;;;;;57.17;33.00;;;;;;;;;;1480644;40;20475;-79
2021/04/19 04:04:17;;;;;;;61.38;33.67;;;;;;;;;;1478512;40;20475;-79
2021/04/19 04:05:19;;;;;;;61.15;34.55;;;;;;;;;;1482006;40;20421;-79
2021/04/19 04:06:20;;;;;;;63.72;32.92;;;;;;;;;;1478124;40;20421;-79
2021/04/19 04:07:21;;;;;;;54.05;31.90;;;;;;;;;;1476664;40;20437;-80
2021/04/19 04:08:23;;;;;;;62.80;32.95;;;;;;;;;;1485770;40;20394;-79
2021/04/19 04:09:24;;;;;;;69.13;34.92;;;;;;;;;;1486984;40;20403;-79
2021/04/19 04:10:25;;;;;;;61.33;34.58;;;;;;;;;;1482506;40;20501;-79
2021/04/19 04:11:26;;;;;;;59.47;31.42;;;;;;;;;;1477806;40;21083;-79
2021/04/19 04:12:28;;;;;;;64.75;32.55;;;;;;;;;;1482502;40;20400;-80
2021/04/19 04:13:29;;;;;;;64.40;33.88;;;;;;;;;;1482358;40;20458;-78
2021/04/19 04:14:30;;;;;;;66.70;32.75;;;;;;;;;;1482147;40;20420;-80
2021/04/19 04:15:31;;;;;;;58.85;32.70;;;;;;;;;;1482124;40;20404;-79
2021/04/19 04:16:32;;;;;;;59.38;32.22;;;;;;;;;;1482376;40;20407;-79
2021/04/19 04:17:34;;;;;;;55.78;32.00;;;;;;;;;;1486530;40;20527;-79
2021/04/19 04:18:35;;;;;;;57.03;31.63;;;;;;;;;;1486627;40;20413;-80
2021/04/19 04:19:37;;;;;;;65.30;32.20;;;;;;;;;;1486942;40;20397;-79
2021/04/19 04:20:38;;;;;;;60.55;33.28;;;;;;;;;;1484274;40;20404;-79
2021/04/19 04:21:39;;;;;;;59.33;33.10;;;;;;;;;;1482530;40;20413;-79
2021/04/19 04:22:40;;;;;;;61.35;31.40;;;;;;;;;;1482403;40;20821;-79
2021/04/19 04:23:43;;;;;;;56.35;31.63;;;;;;;;;;1482542;40;20493;-80
2021/04/19 04:24:44;;;;;;;58.83;32.35;;;;;;;;;;1481744;40;20381;-79
2021/04/19 04:25:51;;;;;;;54.80;31.85;;;;;;;;;;1478562;40;20446;-79
2021/04/19 04:26:52;;;;;;;66.57;31.38;;;;;;;;;;1482353;40;20404;-79
2021/04/19 04:27:54;;;;;;;61.03;31.30;;;;;;;;;;1482246;40;20485;-78
2021/04/19 04:28:55;;;;;;;62.95;33.38;;;;;;;;;;1478020;40;20395;-79
2021/04/19 04:29:56;;;;;;;55.17;30.20;;;;;;;;;;1481648;40;20416;-79
2021/04/19 04:30:57;;;;;;;61.53;32.10;;;;;;;;;;1486615;40;20560;-79
2021/04/19 04:31:58;;;;;;;58.17;30.30;;;;;;;;;;1486939;40;20641;-79
2021/04/19 04:33:00;;;;;;;61.83;31.73;;;;;;;;;;1484811;40;20679;-78
2021/04/19 04:34:02;;;;;;;60.33;32.25;;;;;;;;;;1482379;40;20406;-80
2021/04/19 04:35:03;;;;;;;59.50;30.98;;;;;;;;;;1482427;40;20722;-79
2021/04/19 04:36:04;;;;;;;57.85;32.40;;;;;;;;;;1482103;40;20404;-79
2021/04/19 04:37:06;;;;;;;57.63;31.80;;;;;;;;;;1481598;40;20397;-79
2021/04/19 04:38:07;;;;;;;60.08;30.65;;;;;;;;;;1482166;40;20386;-79
2021/04/19 04:39:08;;;;;;;62.22;32.20;;;;;;;;;;1482265;40;20536;-79
2021/04/19 04:40:10;;;;;;;58.75;31.02;;;;;;;;;;1482513;40;20411;-80
2021/04/19 04:41:11;;;;;;;57.42;31.85;;;;;;;;;;1482680;40;20408;-79
2021/04/19 04:42:14;;;;;;;56.55;31.38;;;;;;;;;;1482078;40;20545;-80
2021/04/19 04:43:17;;;;;;;57.83;30.70;;;;;;;;;;1482253;40;20411;-78
2021/04/19 04:44:25;;;;;;;61.75;31.25;;;;;;;;;;1481596;40;20411;-79
2021/04/19 04:45:26;;;;;;;56.72;29.60;;;;;;;;;;1477129;40;25097;-78
2021/04/19 04:46:34;;;;;;;58.40;30.90;;;;;;;;;;1473619;40;20866;-79
2021/04/19 04:47:44;;;;;;;53.15;29.42;;;;;;;;;;1474551;40;20955;-80
2021/04/19 04:48:59;;;;;;;53.10;31.15;;;;;;;;;;1481788;40;25096;-79
2021/04/19 04:50:08;;;;;;;59.53;30.67;;;;;;;;;;1482180;40;25105;-79
2021/04/19 04:51:12;;;;;;;55.63;31.27;;;;;;;;;;1477987;40;25103;-79
2021/04/19 04:52:13;;;;;;;58.40;32.28;;;;;;;;;;1478025;40;20523;-79
2021/04/19 04:53:37;;;;;;;59.60;32.75;;;;;;;;;;1482031;40;20429;-79
2021/04/19 04:54:39;;;;;;;52.67;32.10;;;;;;;;;;1477692;40;31080;-80
2021/04/19 04:55:42;;;;;;;56.83;31.95;;;;;;;;;;1482031;40;20406;-79
2021/04/19 04:56:49;;;;;;;58.88;31.80;;;;;;;;;;1481626;40;20406;-79
2021/04/19 04:57:50;;;;;;;59.83;32.38;;;;;;;;;;1481467;40;20482;-78
2021/04/19 04:58:56;;;;;;;61.97;34.75;;;;;;;;;;1486712;40;20516;-79
2021/04/19 04:59:58;;;;;;;61.53;31.17;;;;;;;;;;1486330;40;20426;-79
2021/04/19 05:00:59;;;;;;;57.40;33.22;;;;;;;;;;1487021;40;20522;-79
2021/04/19 05:02:01;;;;;;;60.83;31.80;;;;;;;;;;1486799;40;20899;-79
2021/04/19 05:03:03;;;;;;;62.10;32.85;;;;;;;;;;1486849;40;20395;-79
2021/04/19 05:04:06;;;;;;;59.72;32.72;;;;;;;;;;1486644;40;20411;-79
2021/04/19 05:05:08;;;;;;;57.38;31.10;;;;;;;;;;1486921;40;20403;-80
2021/04/19 05:06:10;;;;;;;60.83;31.63;;;;;;;;;;1486498;40;20389;-80
2021/04/19 05:07:11;;;;;;;61.00;33.20;;;;;;;;;;1482471;40;20416;-80
2021/04/19 05:08:12;;;;;;;59.40;32.67;;;;;;;;;;1482548;40;20983;-79
2021/04/19 05:09:13;;;;;;;61.10;33.05;;;;;;;;;;1482799;40;20499;-80
2021/04/19 05:10:15;;;;;;;72.13;33.47;;;;;;;;;;1481775;40;20929;-79
2021/04/19 05:11:21;;;;;;;60.47;33.85;;;;;;;;;;1486549;40;20485;-79
2021/04/19 05:12:22;;;;;;;57.20;32.63;;;;;;;;;;1482164;40;20472;-78
2021/04/19 05:13:23;;;;;;;56.40;32.22;;;;;;;;;;1477942;40;20402;-79
2021/04/19 05:14:27;;;;;;;65.82;32.38;;;;;;;;;;1477471;40;20443;-79
2021/04/19 05:15:28;;;;;;;57.37;31.47;;;;;;;;;;1476453;40;20398;-80
2021/04/19 05:16:30;;;;;;;56.85;31.75;;;;;;;;;;1481946;40;20410;-79
2021/04/19 05:17:31;;;;;;;56.67;30.95;;;;;;;;;;1486213;40;20407;-79
2021/04/19 05:18:32;;;;;;;61.53;31.38;;;;;;;;;;1482033;40;20443;-82
2021/04/19 05:19:34;;;;;;;55.35;31.25;;;;;;;;;;1473767;40;20432;-79
2021/04/19 05:20:35;;;;;;;60.17;31.33;;;;;;;;;;1478463;40;20509;-80
2021/04/19 05:21:37;;;;;;;60.45;31.80;;;;;;;;;;1481785;40;20412;-79
2021/04/19 05:22:38;;;;;;;56.20;31.05;;;;;;;;;;1482017;40;20440;-80
2021/04/19 05:23:39;;;;;;;53.17;29.95;;;;;;;;;;1477348;40;20941;-80
2021/04/19 05:24:40;;;;;;;66.13;30.67;;;;;;;;;;1473988;40;20404;-79
2021/04/19 05:25:42;;;;;;;54.80;29.67;;;;;;;;;;1478139;40;20403;-79
2021/04/19 05:26:43;;;;;;;55.30;29.55;;;;;;;;;;1477613;40;20410;-80
2021/04/19 05:27:45;;;;;;;61.85;31.85;;;;;;;;;;1477031;40;20458;-79
2021/04/19 05:28:47;;;;;;;55.80;30.10;;;;;;;;;;1482215;40;20417;-79
2021/04/19 05:29:53;;;;;;;57.67;30.90;;;;;;;;;;1486266;40;20459;-78
2021/04/19 05:30:54;;;;;;;58.90;31.58;;;;;;;;;;1486774;40;20395;-79
2021/04/19 05:31:55;;;;;;;56.97;30.38;;;;;;;;;;1482083;40;20415;-78
2021/04/19 05:32:59;;;;;;;47.15;29.63;;;;;;;;;;1477772;40;20417;-80
2021/04/19 05:34:00;;;;;;;54.55;31.35;;;;;;;;;;1480449;40;20405;-80
2021/04/19 05:35:02;;;;;;;60.23;30.83;;;;;;;;;;1482517;40;20568;-79
2021/04/19 05:36:10;;;;;;;55.60;30.90;;;;;;;;;;1481372;40;20639;-79
2021/04/19 05:37:11;;;;;;;61.25;31.45;;;;;;;;;;1477946;40;20691;-79
2021/04/19 05:38:12;;;;;;;55.95;30.33;;;;;;;;;;1478425;40;20403;-79
2021/04/19 05:39:13;;;;;;;49.28;29.40;;;;;;;;;;1478126;40;20729;-79
2021/04/19 05:40:15;;;;;;;55.75;30.45;;;;;;;;;;1474232;40;20403;-79
2021/04/19 05:41:17;;;;;;;50.97;28.88;;;;;;;;;;1478212;40;20425;-80
2021/04/19 05:42:19;;;;;;;57.58;29.13;;;;;;;;;;1483224;40;20813;-81
2021/04/19 05:43:20;;;;;;;53.70;29.15;;;;;;;;;;1478615;40;20418;-80
2021/04/19 05:44:21;;;;;;;50.90;27.35;;;;;;;;;;1480993;40;20416;-80
2021/04/19 05:45:22;;;;;;;55.65;29.52;;;;;;;;;;1478399;40;20855;-79
2021/04/19 05:46:23;;;;;;;54.38;28.35;;;;;;;;;;1478735;40;20418;-79
2021/04/19 05:47:25;;;;;;;53.25;28.52;;;;;;;;;;1475618;40;20416;-81
2021/04/19 05:48:26;;;;;;;57.47;27.98;;;;;;;;;;1473811;40;20454;-78
2021/04/19 05:49:27;;;;;;;46.65;28.00;;;;;;;;;;1484622;40;20436;-78
2021/04/19 05:50:28;;;;;;;48.30;28.20;;;;;;;;;;1486101;40;20884;-78
2021/04/19 05:51:35;;;;;;;54.45;28.67;;;;;;;;;;1485686;40;20401;-79
2021/04/19 05:52:36;;;;;;;45.15;27.10;;;;;;;;;;1483165;40;20510;-78
2021/04/19 05:53:38;;;;;;;52.92;27.80;;;;;;;;;;1480434;40;20533;-78
2021/04/19 05:54:40;;;;;;;53.13;28.63;;;;;;;;;;1485408;40;20393;-78
2021/04/19 05:55:43;;;;;;;50.57;28.07;;;;;;;;;;1491651;39;20406;-79
2021/04/19 05:56:59;;;;;;;50.97;27.33;;;;;;;;;;1487570;40;20409;-78
2021/04/19 05:58:19;;;;;;;48.40;26.73;;;;;;;;;;1482900;40;20425;-79
2021/04/19 05:59:29;;;;;;;43.63;26.05;;;;;;;;;;1479081;40;20694;-79
2021/04/19 06:00:49;;;;;;;47.67;27.15;;;;;;;;;;1481132;40;20389;-79
2021/04/19 06:01:52;;;;;;;44.67;26.08;;;;;;;;;;1484101;40;20428;-79
2021/04/19 06:02:58;;;;;;;48.55;25.02;;;;;;;;;;1479049;40;20414;-79
2021/04/19 06:04:21;;;;;;;53.13;27.00;;;;;;;;;;1479289;40;20405;-79
2021/04/19 06:05:43;;;;;;;46.08;26.40;;;;;;;;;;1482518;40;20392;-79